Time;durP1;ratioP1;P1;durP2;ratioP2;P2;SDS_P1;SDS_P2;PMS_P1;PMS_P2;Temp;Humidity;BMP_temperature;BMP_pressure;BME280_temperature;BME280_humidity;BME280_pressure;Samples;Min_cycle;Max_cycle;Signal;HPM_P1;HPM_P2
2021/09/07 00:00:21;;;;;;;16.43;13.53;;;16.70;99.90;;;;;;5053454;28;20220;-71
2021/09/07 00:02:47;;;;;;;14.13;12.10;;;16.80;99.90;;;;;;5055317;28;20170;-72
2021/09/07 00:05:13;;;;;;;14.80;12.47;;;16.80;99.90;;;;;;5056916;28;20184;-71
2021/09/07 00:07:39;;;;;;;13.00;11.07;;;16.80;99.90;;;;;;5056371;28;20202;-71
2021/09/07 00:10:08;;;;;;;13.20;11.50;;;16.80;99.90;;;;;;5056565;28;20424;-71
2021/09/07 00:12:34;;;;;;;14.07;11.80;;;16.70;99.90;;;;;;5056786;28;20460;-71
2021/09/07 00:14:59;;;;;;;15.23;11.17;;;16.80;99.90;;;;;;5057496;28;20799;-71
2021/09/07 00:17:25;;;;;;;14.20;11.90;;;16.80;99.90;;;;;;5056150;28;20428;-72
2021/09/07 00:19:51;;;;;;;12.83;11.50;;;16.70;99.90;;;;;;5037893;28;20747;-71
2021/09/07 00:22:16;;;;;;;18.20;12.07;;;16.70;99.90;;;;;;5057025;28;20182;-71
2021/09/07 00:24:42;;;;;;;15.90;11.50;;;16.70;99.90;;;;;;5057200;28;20166;-71
2021/09/07 00:27:07;;;;;;;14.17;11.37;;;16.70;99.90;;;;;;5056589;28;20182;-71
2021/09/07 00:29:33;;;;;;;16.10;11.30;;;16.80;99.90;;;;;;5056150;28;20196;-71
2021/09/07 00:31:58;;;;;;;13.70;11.10;;;16.80;99.90;;;;;;5056587;28;20293;-72
2021/09/07 00:34:24;;;;;;;15.37;13.03;;;16.70;99.90;;;;;;5056850;28;20202;-72
2021/09/07 00:36:50;;;;;;;19.83;13.03;;;16.70;99.90;;;;;;5056203;28;20602;-71
2021/09/07 00:39:15;;;;;;;15.23;11.70;;;16.60;99.90;;;;;;5056510;28;20524;-72
2021/09/07 00:41:41;;;;;;;20.07;12.80;;;16.60;99.90;;;;;;5057518;28;20531;-71
2021/09/07 00:44:20;;;;;;;14.50;11.53;;;16.50;99.90;;;;;;5057164;28;20185;-71
2021/09/07 00:47:00;;;;;;;13.33;10.20;;;16.50;99.90;;;;;;5057329;28;20151;-71
2021/09/07 00:49:28;;;;;;;13.67;11.70;;;16.60;99.90;;;;;;5056636;28;20444;-72
2021/09/07 00:51:54;;;;;;;12.20;10.70;;;16.60;99.90;;;;;;5056741;28;20496;-71
2021/09/07 00:54:21;;;;;;;12.00;10.77;;;16.60;99.90;;;;;;5055936;28;20427;-71
2021/09/07 00:56:48;;;;;;;14.57;11.63;;;16.60;99.90;;;;;;5056280;28;20756;-71
2021/09/07 00:59:14;;;;;;;15.40;12.45;;;16.60;99.90;;;;;;5055295;28;20420;-71
2021/09/07 01:01:40;;;;;;;16.03;12.60;;;16.60;99.90;;;;;;5056732;28;20217;-71
2021/09/07 01:04:06;;;;;;;16.07;11.93;;;16.60;99.90;;;;;;5057124;28;20470;-71
2021/09/07 01:06:33;;;;;;;14.93;10.43;;;16.60;99.90;;;;;;5056903;28;20408;-71
2021/09/07 01:08:59;;;;;;;13.63;11.27;;;16.60;99.90;;;;;;5056331;28;20421;-71
2021/09/07 01:11:24;;;;;;;12.37;11.07;;;16.60;99.90;;;;;;5055674;28;20489;-71
2021/09/07 01:13:50;;;;;;;14.57;10.63;;;16.60;99.90;;;;;;5054653;28;20165;-70
2021/09/07 01:16:16;;;;;;;15.43;11.87;;;16.60;99.90;;;;;;5055006;28;20224;-71
2021/09/07 01:18:42;;;;;;;13.70;11.87;;;16.60;99.90;;;;;;5055368;28;20461;-70
2021/09/07 01:21:15;;;;;;;14.00;11.50;;;16.40;99.90;;;;;;5037708;28;20194;-70
2021/09/07 01:23:43;;;;;;;11.90;10.43;;;16.30;99.90;;;;;;5037972;28;20529;-71
2021/09/07 01:26:15;;;;;;;13.87;10.90;;;16.30;99.90;;;;;;5055659;28;20452;-70
2021/09/07 01:28:41;;;;;;;15.67;10.83;;;16.30;99.90;;;;;;5054963;28;20436;-70
2021/09/07 01:31:07;;;;;;;12.13;10.70;;;16.30;99.90;;;;;;5055267;28;20482;-70
2021/09/07 01:33:34;;;;;;;13.40;11.17;;;16.30;99.90;;;;;;5055781;28;20527;-71
2021/09/07 01:36:01;;;;;;;13.97;11.10;;;16.30;99.90;;;;;;5039250;28;20443;-70
2021/09/07 01:38:28;;;;;;;11.73;10.40;;;16.30;99.90;;;;;;5057259;28;20842;-70
2021/09/07 01:40:55;;;;;;;12.90;10.73;;;16.30;99.90;;;;;;5057005;28;20511;-70
2021/09/07 01:43:21;;;;;;;14.30;10.37;;;16.20;99.90;;;;;;5057770;28;20421;-71
2021/09/07 01:45:51;;;;;;;13.13;10.17;;;16.20;99.90;;;;;;5056694;28;20411;-72
2021/09/07 01:48:20;;;;;;;12.67;11.27;;;16.20;99.90;;;;;;5054480;28;20512;-71
2021/09/07 01:50:47;;;;;;;14.70;11.27;;;16.20;99.90;;;;;;5037398;28;20464;-71
2021/09/07 01:53:13;;;;;;;11.80;10.33;;;16.20;99.90;;;;;;5056120;28;20487;-71
2021/09/07 01:55:39;;;;;;;13.50;10.33;;;16.20;99.90;;;;;;5037821;28;20417;-70
2021/09/07 01:58:04;;;;;;;13.77;10.77;;;16.20;99.90;;;;;;5056013;28;20670;-70
2021/09/07 02:00:30;;;;;;;15.03;12.20;;;16.20;99.90;;;;;;5055590;28;20515;-70
2021/09/07 02:02:56;;;;;;;13.63;10.70;;;16.20;99.90;;;;;;5056248;28;20261;-71
2021/09/07 02:05:22;;;;;;;14.40;10.93;;;16.20;99.90;;;;;;5055780;28;20416;-71
2021/09/07 02:07:47;;;;;;;13.53;11.20;;;16.20;99.90;;;;;;5054443;28;20239;-70
2021/09/07 02:10:13;;;;;;;15.80;11.20;;;16.20;99.90;;;;;;5055151;28;20198;-70
2021/09/07 02:12:39;;;;;;;14.90;12.00;;;16.20;99.90;;;;;;5055198;28;20255;-70
2021/09/07 02:15:06;;;;;;;17.40;10.90;;;16.20;99.90;;;;;;5054909;28;20167;-70
2021/09/07 02:17:32;;;;;;;17.57;11.60;;;16.20;99.90;;;;;;5054465;28;20447;-71
2021/09/07 02:19:58;;;;;;;17.80;13.10;;;16.20;99.90;;;;;;5046470;28;20546;-70
2021/09/07 02:22:23;;;;;;;21.73;14.60;;;16.20;99.90;;;;;;5054550;28;20182;-70
2021/09/07 02:24:49;;;;;;;16.30;13.00;;;16.10;99.90;;;;;;5054344;28;20174;-70
2021/09/07 02:27:15;;;;;;;20.40;13.33;;;16.00;99.90;;;;;;5054880;28;20247;-70
2021/09/07 02:29:40;;;;;;;16.90;11.93;;;16.00;99.90;;;;;;5054043;28;20178;-70
2021/09/07 02:32:09;;;;;;;13.93;12.33;;;16.00;99.90;;;;;;5055118;28;20206;-70
2021/09/07 02:34:35;;;;;;;15.43;10.77;;;16.00;99.90;;;;;;5055242;28;20174;-72
2021/09/07 02:37:00;;;;;;;12.77;10.57;;;16.00;99.90;;;;;;5054373;28;20463;-71
2021/09/07 02:39:26;;;;;;;13.90;11.53;;;16.00;99.90;;;;;;5054229;28;20216;-70
2021/09/07 02:41:52;;;;;;;14.93;12.00;;;16.00;99.90;;;;;;5054185;28;20738;-71
2021/09/07 02:44:18;;;;;;;12.63;11.30;;;16.00;99.90;;;;;;5054179;28;20501;-70
2021/09/07 02:46:45;;;;;;;15.67;11.83;;;16.00;99.90;;;;;;5054688;28;20400;-72
2021/09/07 02:49:11;;;;;;;13.57;11.27;;;16.00;99.90;;;;;;5053349;28;20198;-71
2021/09/07 02:51:36;;;;;;;16.17;13.20;;;16.10;99.90;;;;;;5035994;28;20473;-70
2021/09/07 02:54:02;;;;;;;15.63;11.83;;;16.10;99.90;;;;;;5036169;28;20444;-70
2021/09/07 02:56:27;;;;;;;16.50;12.83;;;16.10;99.90;;;;;;5053772;28;20220;-70
2021/09/07 02:58:53;;;;;;;12.90;11.37;;;16.20;99.90;;;;;;5053529;28;20171;-70
2021/09/07 03:01:18;;;;;;;15.23;12.20;;;16.20;99.90;;;;;;5054112;28;20571;-70
2021/09/07 03:03:44;;;;;;;14.77;11.67;;;16.20;99.90;;;;;;5053241;28;20563;-71
2021/09/07 03:06:10;;;;;;;13.93;11.70;;;16.20;99.90;;;;;;5053116;28;20202;-70
2021/09/07 03:08:35;;;;;;;14.70;11.97;;;16.20;99.90;;;;;;5035132;28;20175;-70
2021/09/07 03:11:01;;;;;;;15.77;13.20;;;16.20;99.90;;;;;;5053468;28;20656;-71
2021/09/07 03:13:26;;;;;;;13.80;11.70;;;16.20;99.90;;;;;;5054004;28;20193;-70
2021/09/07 03:15:52;;;;;;;14.33;12.40;;;16.30;99.90;;;;;;5053364;28;20198;-70
2021/09/07 03:18:18;;;;;;;17.80;13.70;;;16.30;99.90;;;;;;5053589;28;20220;-70
2021/09/07 03:20:43;;;;;;;15.43;12.10;;;16.30;99.90;;;;;;5053381;28;20236;-70
2021/09/07 03:23:09;;;;;;;16.67;13.30;;;16.30;99.90;;;;;;5053736;28;20658;-70
2021/09/07 03:25:34;;;;;;;18.23;12.73;;;16.30;99.90;;;;;;5035195;28;20264;-69
2021/09/07 03:28:00;;;;;;;14.60;11.73;;;16.30;99.90;;;;;;5053058;28;20639;-71
2021/09/07 03:30:26;;;;;;;14.23;12.30;;;16.30;99.90;;;;;;5052963;28;20888;-72
2021/09/07 03:32:52;;;;;;;17.47;11.80;;;16.30;99.90;;;;;;5053291;28;20202;-70
2021/09/07 03:35:18;;;;;;;15.30;11.70;;;16.30;99.90;;;;;;5053356;28;20175;-70
2021/09/07 03:37:44;;;;;;;16.87;12.77;;;16.40;99.90;;;;;;5055077;28;20194;-69
2021/09/07 03:40:12;;;;;;;16.43;12.97;;;16.40;99.90;;;;;;5058260;28;20439;-70
2021/09/07 03:42:38;;;;;;;13.90;11.70;;;16.40;99.90;;;;;;5057930;28;20420;-71
2021/09/07 03:45:06;;;;;;;16.07;12.83;;;16.40;99.90;;;;;;5057155;28;20457;-70
2021/09/07 03:47:32;;;;;;;14.93;11.93;;;16.40;99.90;;;;;;5057466;28;20420;-70
2021/09/07 03:49:57;;;;;;;19.97;13.27;;;16.40;99.90;;;;;;5056752;28;20408;-71
2021/09/07 03:52:23;;;;;;;16.40;13.80;;;16.40;99.90;;;;;;5056877;28;20216;-70
2021/09/07 03:54:48;;;;;;;16.37;12.90;;;16.30;99.90;;;;;;5057197;28;20253;-70
2021/09/07 03:57:14;;;;;;;15.70;12.67;;;16.40;99.90;;;;;;5039388;28;20210;-70
2021/09/07 03:59:39;;;;;;;17.70;12.50;;;16.40;99.90;;;;;;5057693;28;20170;-70
2021/09/07 04:02:05;;;;;;;15.50;13.80;;;16.40;99.90;;;;;;5046196;28;20441;-70
2021/09/07 04:04:31;;;;;;;16.00;13.73;;;16.50;99.90;;;;;;5037542;28;20301;-70
2021/09/07 04:06:57;;;;;;;16.67;13.70;;;16.40;99.90;;;;;;5043627;28;20523;-70
2021/09/07 04:09:23;;;;;;;15.67;11.57;;;16.50;99.90;;;;;;5046169;28;20190;-71
2021/09/07 04:11:49;;;;;;;14.27;12.70;;;16.50;99.90;;;;;;5041610;28;20617;-70
2021/09/07 04:14:15;;;;;;;17.73;12.10;;;16.50;99.90;;;;;;5048507;28;20511;-70
2021/09/07 04:16:40;;;;;;;15.13;12.47;;;16.60;99.90;;;;;;5043085;28;20508;-70
2021/09/07 04:19:06;;;;;;;14.00;12.50;;;16.50;99.90;;;;;;5045093;28;20520;-71
2021/09/07 04:21:31;;;;;;;14.97;12.20;;;16.50;99.90;;;;;;5045454;28;20646;-70
2021/09/07 04:23:57;;;;;;;13.77;11.93;;;16.60;99.90;;;;;;5045904;28;20186;-71
2021/09/07 04:26:22;;;;;;;15.43;13.30;;;16.50;99.90;;;;;;5023878;28;20652;-71
2021/09/07 04:28:48;;;;;;;16.80;13.33;;;16.50;99.90;;;;;;5043582;28;20667;-71
2021/09/07 04:31:14;;;;;;;16.17;12.07;;;16.30;99.90;;;;;;5056182;28;20193;-70
2021/09/07 04:33:39;;;;;;;15.10;12.67;;;16.30;99.90;;;;;;5056307;28;20248;-70
2021/09/07 04:36:05;;;;;;;16.37;13.70;;;16.30;99.90;;;;;;5054292;28;20240;-71
2021/09/07 04:38:30;;;;;;;14.27;11.87;;;16.40;99.90;;;;;;5043203;28;20343;-70
2021/09/07 04:40:56;;;;;;;15.30;13.70;;;16.40;99.90;;;;;;5053448;28;20604;-72
2021/09/07 04:43:21;;;;;;;15.47;12.33;;;16.40;99.90;;;;;;5026335;28;20722;-71
2021/09/07 04:45:47;;;;;;;16.47;12.60;;;16.50;99.90;;;;;;5043635;28;20214;-70
2021/09/07 04:48:12;;;;;;;18.30;12.40;;;16.50;99.90;;;;;;5044430;28;20225;-71
2021/09/07 04:50:38;;;;;;;16.40;13.07;;;16.60;99.90;;;;;;5052797;28;20255;-70
2021/09/07 04:53:04;;;;;;;16.87;12.93;;;16.60;99.90;;;;;;5053141;28;20749;-71
2021/09/07 04:55:30;;;;;;;17.03;13.60;;;16.60;99.90;;;;;;5053434;28;20436;-71
2021/09/07 04:57:56;;;;;;;17.17;13.90;;;16.70;99.90;;;;;;5054191;28;20214;-71
2021/09/07 05:00:22;;;;;;;15.90;12.30;;;16.60;99.90;;;;;;5052734;28;20205;-70
2021/09/07 05:02:47;;;;;;;15.00;13.00;;;16.70;99.90;;;;;;5053239;28;20470;-71
2021/09/07 05:05:13;;;;;;;16.57;12.53;;;16.70;99.90;;;;;;5053958;28;20531;-71
2021/09/07 05:07:38;;;;;;;17.60;13.50;;;16.70;99.90;;;;;;5033918;28;20351;-71
2021/09/07 05:10:05;;;;;;;17.87;13.50;;;16.70;99.90;;;;;;5053522;28;20293;-73
2021/09/07 05:12:31;;;;;;;17.07;13.20;;;16.70;99.90;;;;;;5054396;28;20217;-71
2021/09/07 05:14:56;;;;;;;17.70;13.17;;;16.70;99.90;;;;;;5054044;28;20419;-70
2021/09/07 05:17:22;;;;;;;17.30;12.80;;;16.80;99.90;;;;;;5054326;28;20185;-72
2021/09/07 05:19:47;;;;;;;17.50;12.90;;;16.70;99.90;;;;;;5053400;28;20386;-71
2021/09/07 05:22:13;;;;;;;15.90;12.80;;;16.70;99.90;;;;;;5053528;28;20217;-70
2021/09/07 05:24:38;;;;;;;16.27;12.60;;;16.70;99.90;;;;;;5034067;28;20292;-70
2021/09/07 05:27:04;;;;;;;15.10;13.50;;;16.60;99.90;;;;;;5054444;28;20543;-71
2021/09/07 05:29:30;;;;;;;16.13;14.40;;;16.70;99.90;;;;;;5052668;28;20178;-71
2021/09/07 05:31:55;;;;;;;15.93;13.80;;;16.50;99.90;;;;;;5053522;28;20482;-71
2021/09/07 05:34:21;;;;;;;17.80;14.70;;;16.50;99.90;;;;;;5054003;28;20667;-71
2021/09/07 05:36:46;;;;;;;16.93;14.27;;;16.40;99.90;;;;;;5053655;28;20249;-72
2021/09/07 05:39:12;;;;;;;22.13;14.90;;;16.40;99.90;;;;;;5054761;28;20166;-71
2021/09/07 05:41:37;;;;;;;18.20;13.10;;;16.40;99.90;;;;;;5037770;28;20633;-72
2021/09/07 05:44:03;;;;;;;17.80;12.67;;;16.50;99.90;;;;;;5055136;28;20267;-72
2021/09/07 05:46:29;;;;;;;15.97;13.70;;;16.50;99.90;;;;;;5055565;28;20500;-71
2021/09/07 05:48:54;;;;;;;16.50;13.53;;;16.60;99.90;;;;;;5054764;28;20174;-71
2021/09/07 05:51:20;;;;;;;19.00;13.87;;;16.70;99.90;;;;;;5055272;28;20201;-70
2021/09/07 05:53:45;;;;;;;19.77;14.80;;;16.70;99.90;;;;;;5056994;28;20198;-71
2021/09/07 05:56:11;;;;;;;16.93;13.43;;;16.80;99.90;;;;;;5054716;28;20411;-71
2021/09/07 05:58:39;;;;;;;15.37;13.23;;;16.90;99.90;;;;;;5054284;28;20201;-72
2021/09/07 06:01:05;;;;;;;16.37;12.90;;;17.00;99.90;;;;;;5054138;28;20682;-71
2021/09/07 06:03:31;;;;;;;15.23;13.43;;;17.00;99.90;;;;;;5054489;28;20412;-72
2021/09/07 06:05:56;;;;;;;19.00;14.50;;;17.00;99.90;;;;;;5054842;28;20201;-72
2021/09/07 06:08:23;;;;;;;16.90;13.13;;;17.10;99.90;;;;;;5055211;28;20239;-71
2021/09/07 06:10:48;;;;;;;16.50;13.87;;;17.10;99.90;;;;;;5036788;28;20202;-72
2021/09/07 06:13:14;;;;;;;15.30;13.20;;;17.20;99.90;;;;;;5054452;28;20464;-72
2021/09/07 06:15:41;;;;;;;18.27;13.40;;;17.20;99.90;;;;;;5054534;28;20638;-72
2021/09/07 06:18:07;;;;;;;18.10;14.23;;;17.30;99.90;;;;;;5054707;28;20300;-71
2021/09/07 06:20:33;;;;;;;18.40;14.33;;;17.40;99.90;;;;;;5054216;28;20425;-71
2021/09/07 06:22:58;;;;;;;17.03;14.67;;;17.40;99.90;;;;;;5036313;28;20409;-72
2021/09/07 06:25:24;;;;;;;17.80;14.87;;;17.40;99.90;;;;;;5053859;28;20178;-72
2021/09/07 06:27:50;;;;;;;17.30;14.47;;;17.40;99.90;;;;;;5054873;28;20167;-72
2021/09/07 06:30:15;;;;;;;18.30;14.60;;;17.40;99.90;;;;;;5036583;28;20194;-71
2021/09/07 06:32:41;;;;;;;19.27;15.43;;;17.50;99.90;;;;;;5055448;28;20507;-71
2021/09/07 06:35:08;;;;;;;17.70;13.77;;;17.50;99.90;;;;;;5054766;28;20193;-70
2021/09/07 06:37:33;;;;;;;18.00;13.40;;;17.60;99.90;;;;;;5054006;28;20641;-71
2021/09/07 06:39:59;;;;;;;18.43;14.10;;;17.60;99.90;;;;;;5055488;28;20491;-71
2021/09/07 06:42:25;;;;;;;20.50;16.40;;;17.70;99.90;;;;;;5035701;28;20889;-72
2021/09/07 06:44:50;;;;;;;17.10;15.30;;;17.70;99.90;;;;;;5054151;28;20472;-71
2021/09/07 06:47:16;;;;;;;17.80;14.13;;;17.70;99.90;;;;;;5053773;28;20170;-72
2021/09/07 06:49:42;;;;;;;21.40;14.80;;;17.60;99.90;;;;;;5054217;28;20178;-72
2021/09/07 06:52:07;;;;;;;23.83;15.50;;;17.60;99.90;;;;;;5053972;28;20201;-72
2021/09/07 06:54:33;;;;;;;18.73;14.17;;;17.70;99.90;;;;;;5053924;28;20649;-72
2021/09/07 06:56:58;;;;;;;17.97;14.80;;;17.70;99.90;;;;;;5054283;28;20166;-72
2021/09/07 06:59:24;;;;;;;17.70;14.30;;;17.80;99.90;;;;;;5053778;28;20624;-72
2021/09/07 07:01:50;;;;;;;17.83;13.43;;;17.90;99.90;;;;;;5054947;28;20651;-71
2021/09/07 07:04:15;;;;;;;15.90;13.80;;;18.00;99.90;;;;;;5053437;28;20649;-71
2021/09/07 07:06:41;;;;;;;17.33;13.77;;;18.10;99.90;;;;;;5054120;28;20163;-71
2021/09/07 07:09:06;;;;;;;22.70;15.03;;;18.10;99.90;;;;;;5053483;28;20642;-71
2021/09/07 07:11:32;;;;;;;16.67;13.80;;;18.20;99.90;;;;;;5052692;28;20202;-71
2021/09/07 07:13:58;;;;;;;17.70;14.20;;;18.30;99.90;;;;;;5053053;28;20198;-71
2021/09/07 07:16:23;;;;;;;20.80;15.43;;;18.30;99.90;;;;;;5054322;28;20679;-71
2021/09/07 07:18:49;;;;;;;16.03;14.10;;;18.40;99.90;;;;;;5053449;28;20174;-71
2021/09/07 07:21:14;;;;;;;18.83;15.47;;;18.50;99.90;;;;;;5053021;28;20424;-71
2021/09/07 07:23:40;;;;;;;22.03;15.53;;;18.60;99.90;;;;;;5053578;28;20416;-71
2021/09/07 07:26:05;;;;;;;19.93;14.83;;;18.60;99.90;;;;;;5054357;28;20209;-71
2021/09/07 07:28:31;;;;;;;18.23;15.10;;;18.70;99.90;;;;;;5035440;28;20166;-71
2021/09/07 07:30:57;;;;;;;18.47;14.87;;;18.80;99.90;;;;;;5053100;28;20190;-71
2021/09/07 07:33:22;;;;;;;17.20;14.93;;;18.90;99.90;;;;;;5053536;28;20339;-71
2021/09/07 07:35:48;;;;;;;18.87;16.87;;;18.90;99.90;;;;;;5052940;28;20186;-71
2021/09/07 07:38:14;;;;;;;20.83;17.00;;;19.00;99.90;;;;;;5034729;28;20261;-71
2021/09/07 07:40:39;;;;;;;21.40;16.30;;;19.00;99.90;;;;;;5053141;28;20228;-71
2021/09/07 07:43:05;;;;;;;23.73;16.70;;;19.00;99.90;;;;;;5054304;28;20181;-70
2021/09/07 07:45:31;;;;;;;20.67;16.17;;;19.10;99.90;;;;;;5053396;28;20167;-72
2021/09/07 07:47:56;;;;;;;17.87;14.43;;;19.20;99.90;;;;;;5053402;28;20248;-72
2021/09/07 07:50:22;;;;;;;23.97;15.47;;;19.20;99.90;;;;;;5053509;28;20201;-72
2021/09/07 07:52:47;;;;;;;19.03;15.40;;;19.30;99.90;;;;;;5053182;28;20220;-71
2021/09/07 07:55:13;;;;;;;18.73;14.27;;;19.40;99.90;;;;;;5053343;28;20253;-72
2021/09/07 07:57:38;;;;;;;21.37;14.77;;;19.50;99.90;;;;;;5052858;28;20198;-72
2021/09/07 08:00:05;;;;;;;20.47;14.27;;;19.50;99.90;;;;;;5035073;28;20178;-72
2021/09/07 08:02:31;;;;;;;21.60;15.17;;;19.60;99.90;;;;;;5053366;28;20171;-71
2021/09/07 08:04:56;;;;;;;20.83;16.63;;;19.70;99.90;;;;;;5053365;28;20480;-72
2021/09/07 08:07:22;;;;;;;20.93;15.30;;;19.80;99.90;;;;;;5035184;28;20293;-72
2021/09/07 08:09:47;;;;;;;15.53;13.87;;;19.80;99.90;;;;;;5035134;28;20221;-72
2021/09/07 08:12:16;;;;;;;16.47;13.97;;;19.90;99.90;;;;;;5034923;28;20248;-72
2021/09/07 08:14:44;;;;;;;18.57;13.97;;;20.00;99.90;;;;;;5035265;28;20212;-72
2021/09/07 08:17:09;;;;;;;19.87;15.83;;;20.10;99.90;;;;;;5053562;28;21024;-72
2021/09/07 08:19:35;;;;;;;19.77;15.03;;;20.10;99.90;;;;;;5052519;28;20500;-72
2021/09/07 08:22:00;;;;;;;21.73;15.97;;;20.20;99.90;;;;;;5053403;28;20291;-72
2021/09/07 08:24:27;;;;;;;19.30;16.00;;;20.30;99.90;;;;;;5056148;28;20240;-72
2021/09/07 08:26:53;;;;;;;20.07;16.33;;;20.40;99.90;;;;;;5057538;28;20232;-72
2021/09/07 08:29:18;;;;;;;20.17;15.90;;;20.40;99.90;;;;;;5057870;28;20424;-72
2021/09/07 08:31:44;;;;;;;17.10;15.30;;;20.50;99.90;;;;;;5057188;28;20551;-72
2021/09/07 08:34:09;;;;;;;19.73;15.80;;;20.60;99.90;;;;;;5057378;28;20260;-72
2021/09/07 08:36:35;;;;;;;20.27;16.70;;;20.60;99.90;;;;;;5056401;28;20431;-72
2021/09/07 08:39:00;;;;;;;20.17;17.40;;;20.70;99.90;;;;;;5059084;28;20260;-70
2021/09/07 08:41:26;;;;;;;21.40;16.50;;;20.60;99.90;;;;;;5059353;28;20254;-72
2021/09/07 08:43:53;;;;;;;21.27;15.03;;;20.70;99.90;;;;;;5057376;28;20175;-71
2021/09/07 08:46:19;;;;;;;20.73;16.40;;;20.80;99.90;;;;;;5058052;28;20174;-73
2021/09/07 08:48:46;;;;;;;16.77;14.97;;;20.90;99.90;;;;;;5039628;28;20520;-71
2021/09/07 08:51:14;;;;;;;16.23;13.57;;;21.00;99.90;;;;;;5056122;28;20435;-71
2021/09/07 08:53:39;;;;;;;20.80;14.33;;;21.10;99.90;;;;;;5056388;28;20463;-72
2021/09/07 08:56:06;;;;;;;16.20;13.30;;;21.10;99.90;;;;;;5058701;28;20412;-72
2021/09/07 08:58:32;;;;;;;21.37;13.47;;;21.10;99.90;;;;;;5057777;28;20335;-72
2021/09/07 09:00:57;;;;;;;17.07;13.50;;;21.20;99.90;;;;;;5057721;28;20504;-73
2021/09/07 09:03:23;;;;;;;17.10;12.87;;;21.20;99.90;;;;;;5057261;28;20170;-70
2021/09/07 09:05:50;;;;;;;15.30;13.37;;;21.30;99.90;;;;;;5056477;28;20550;-70
2021/09/07 09:08:17;;;;;;;15.03;13.13;;;21.30;99.90;;;;;;5056064;28;20785;-71
2021/09/07 09:10:44;;;;;;;16.80;12.63;;;21.40;99.90;;;;;;5055952;28;20445;-71
2021/09/07 09:13:11;;;;;;;16.57;13.67;;;21.40;99.90;;;;;;5055415;28;20464;-71
2021/09/07 09:15:37;;;;;;;14.87;12.50;;;21.50;99.90;;;;;;5055822;28;20474;-72
2021/09/07 09:18:08;;;;;;;18.03;14.43;;;21.50;99.90;;;;;;5055767;28;20424;-71
2021/09/07 09:20:35;;;;;;;16.80;14.20;;;21.50;99.90;;;;;;5056947;28;20432;-72
2021/09/07 09:23:02;;;;;;;16.27;13.03;;;21.60;99.90;;;;;;5056062;28;20405;-71
2021/09/07 09:25:32;;;;;;;20.73;14.90;;;21.70;99.90;;;;;;5058291;28;20441;-72
2021/09/07 09:28:13;;;;;;;17.03;13.73;;;21.70;99.90;;;;;;5061123;28;20956;-71
2021/09/07 09:30:39;;;;;;;16.60;14.10;;;21.90;99.90;;;;;;5058204;28;20424;-71
2021/09/07 09:33:06;;;;;;;15.33;13.30;;;21.90;99.90;;;;;;5059814;28;20937;-71
2021/09/07 09:35:42;;;;;;;15.93;13.23;;;21.90;99.90;;;;;;5058729;28;20447;-71
2021/09/07 09:38:08;;;;;;;17.03;14.17;;;21.90;99.90;;;;;;5057595;28;20428;-71
2021/09/07 09:40:34;;;;;;;16.07;14.00;;;22.00;99.90;;;;;;5056302;28;20464;-71
2021/09/07 09:43:22;;;;;;;16.70;13.93;;;22.10;99.90;;;;;;5039894;28;20174;-72
2021/09/07 09:45:48;;;;;;;15.43;12.83;;;22.20;99.90;;;;;;5055185;28;20495;-72
2021/09/07 09:48:22;;;;;;;14.60;13.10;;;22.30;99.90;;;;;;5054787;28;20436;-70
2021/09/07 09:50:51;;;;;;;15.83;14.00;;;22.40;99.80;;;;;;5055370;28;20805;-72
2021/09/07 09:53:20;;;;;;;14.50;12.10;;;22.50;98.20;;;;;;5056575;28;20463;-71
2021/09/07 09:55:47;;;;;;;15.80;13.07;;;22.60;97.90;;;;;;5055014;28;20404;-72
2021/09/07 09:58:15;;;;;;;15.20;11.90;;;22.70;97.10;;;;;;5054906;28;20423;-71
2021/09/07 10:00:44;;;;;;;13.67;12.20;;;22.80;96.50;;;;;;5054990;28;20421;-73
2021/09/07 10:03:10;;;;;;;13.83;11.30;;;22.70;96.30;;;;;;5055390;28;20404;-72
2021/09/07 10:05:36;;;;;;;13.47;11.50;;;22.80;96.20;;;;;;5037624;28;20428;-71
2021/09/07 10:08:02;;;;;;;12.23;10.43;;;22.70;95.40;;;;;;5037160;28;20790;-72
2021/09/07 10:10:28;;;;;;;13.90;11.97;;;22.80;96.00;;;;;;5055926;28;20432;-71
2021/09/07 10:12:58;;;;;;;14.50;10.70;;;22.80;96.50;;;;;;5055247;28;20460;-71
2021/09/07 10:15:29;;;;;;;12.33;11.03;;;22.90;96.70;;;;;;5054721;28;20193;-72
2021/09/07 10:21:07;;;;;;;13.97;11.80;;;23.20;96.70;;;;;;5054564;28;20407;-72
2021/09/07 10:26:38;;;;;;;12.37;11.07;;;23.40;96.70;;;;;;5054531;28;20510;-72
2021/09/07 10:29:08;;;;;;;11.67;10.50;;;23.40;96.50;;;;;;5053834;28;20443;-72
2021/09/07 10:31:43;;;;;;;13.20;11.80;;;23.50;97.20;;;;;;5036169;28;20479;-72
2021/09/07 10:34:09;;;;;;;14.20;11.27;;;23.40;96.30;;;;;;5053964;28;20990;-72
2021/09/07 10:36:54;;;;;;;12.47;11.10;;;23.30;96.20;;;;;;5054510;28;20525;-73
2021/09/07 10:39:30;;;;;;;11.60;10.40;;;23.40;96.50;;;;;;5054155;28;20455;-71
2021/09/07 10:41:56;;;;;;;11.03;9.90;;;23.60;96.60;;;;;;5033769;28;20438;-72
2021/09/07 10:44:26;;;;;;;13.43;10.17;;;23.70;96.30;;;;;;5053104;28;20412;-72
2021/09/07 10:46:57;;;;;;;13.37;11.90;;;23.80;95.90;;;;;;5053940;28;20811;-73
2021/09/07 10:52:23;;;;;;;12.07;10.70;;;24.00;95.70;;;;;;5054247;28;20473;-72
2021/09/07 10:55:11;;;;;;;11.90;10.43;;;24.00;95.40;;;;;;5053476;28;20452;-71
2021/09/07 10:57:49;;;;;;;12.10;10.80;;;24.10;95.40;;;;;;5053774;28;20413;-71
2021/09/07 11:00:17;;;;;;;11.90;10.70;;;24.10;95.20;;;;;;5033769;28;20500;-70
2021/09/07 11:02:49;;;;;;;12.77;10.90;;;24.20;95.40;;;;;;5033729;28;20405;-72
2021/09/07 11:05:23;;;;;;;12.63;11.33;;;24.10;95.40;;;;;;5050659;28;20993;-72
2021/09/07 11:08:01;;;;;;;12.47;11.17;;;24.00;95.10;;;;;;5035741;28;20409;-72
2021/09/07 11:10:29;;;;;;;12.57;10.47;;;24.10;95.40;;;;;;5035595;28;20460;-72
2021/09/07 11:12:56;;;;;;;13.40;10.37;;;24.00;95.40;;;;;;5054190;28;20494;-73
2021/09/07 11:15:24;;;;;;;12.70;10.37;;;24.10;95.40;;;;;;5053109;28;20440;-72
2021/09/07 11:17:54;;;;;;;14.13;10.57;;;24.10;95.30;;;;;;5054178;28;20401;-72
2021/09/07 11:20:22;;;;;;;14.07;9.90;;;24.10;95.40;;;;;;5035262;28;20436;-72
2021/09/07 11:22:48;;;;;;;12.70;10.50;;;24.00;95.50;;;;;;5035802;28;20404;-72
2021/09/07 11:25:16;;;;;;;14.63;10.27;;;23.90;95.80;;;;;;5053629;28;20502;-71
2021/09/07 11:27:58;;;;;;;11.57;10.47;;;23.80;96.10;;;;;;5053384;28;20762;-72
2021/09/07 11:30:42;;;;;;;12.00;10.50;;;23.80;96.40;;;;;;5053561;28;20817;-72
2021/09/07 11:33:13;;;;;;;13.20;10.93;;;23.70;96.80;;;;;;5053688;28;20513;-72
2021/09/07 11:35:40;;;;;;;11.70;10.03;;;23.70;97.00;;;;;;5053478;28;20466;-72
2021/09/07 11:38:08;;;;;;;11.57;10.03;;;23.70;96.60;;;;;;5053126;28;20468;-72
2021/09/07 11:40:36;;;;;;;10.47;9.40;;;23.80;96.40;;;;;;5053527;28;20425;-71
2021/09/07 11:43:02;;;;;;;10.20;9.00;;;23.70;95.70;;;;;;5053558;28;20807;-72
2021/09/07 11:45:33;;;;;;;9.70;8.73;;;23.80;95.80;;;;;;5053773;28;20789;-72
2021/09/07 11:48:01;;;;;;;10.17;9.17;;;23.80;95.30;;;;;;5052820;28;20431;-72
2021/09/07 11:50:36;;;;;;;12.80;11.50;;;23.80;95.30;;;;;;5053305;28;20428;-72
2021/09/07 11:53:05;;;;;;;11.10;10.00;;;23.80;95.60;;;;;;5053525;28;20474;-71
2021/09/07 11:55:44;;;;;;;10.30;9.20;;;23.90;95.70;;;;;;5054771;28;20409;-72
2021/09/07 11:58:21;;;;;;;10.90;9.80;;;23.90;95.90;;;;;;5054369;28;20459;-70
2021/09/07 12:01:11;;;;;;;13.87;9.43;;;23.90;95.40;;;;;;5057896;28;20535;-72
2021/09/07 12:03:41;;;;;;;9.33;8.40;;;24.00;95.50;;;;;;5057371;28;20479;-73
2021/09/07 12:06:08;;;;;;;8.83;7.93;;;24.00;94.50;;;;;;5039174;28;20454;-72
2021/09/07 12:09:00;;;;;;;11.67;8.10;;;24.00;93.90;;;;;;5056901;28;20982;-72
2021/09/07 12:11:28;;;;;;;9.37;8.37;;;24.00;93.90;;;;;;5021952;28;20426;-72
2021/09/07 12:14:06;;;;;;;9.07;7.23;;;24.00;94.20;;;;;;5056955;28;20906;-72
2021/09/07 12:16:34;;;;;;;7.43;6.70;;;24.10;92.50;;;;;;5056963;28;20738;-72
2021/09/07 12:19:27;;;;;;;8.20;7.40;;;24.10;92.20;;;;;;5057247;28;20416;-72
2021/09/07 12:22:22;;;;;;;17.10;7.43;;;24.10;92.60;;;;;;5058451;28;20443;-72
2021/09/07 12:25:00;;;;;;;8.40;7.47;;;24.10;92.80;;;;;;5057100;28;20433;-72
2021/09/07 12:27:27;;;;;;;9.93;8.30;;;24.10;92.90;;;;;;5050700;28;20978;-72
2021/09/07 12:30:08;;;;;;;8.93;8.13;;;24.10;93.20;;;;;;5052606;28;20442;-72
2021/09/07 12:32:50;;;;;;;9.67;8.77;;;24.10;93.40;;;;;;5055398;28;20533;-72
2021/09/07 12:35:27;;;;;;;9.27;8.37;;;24.10;93.70;;;;;;5056976;28;20929;-71
2021/09/07 12:37:53;;;;;;;9.30;8.30;;;24.10;93.70;;;;;;5055424;28;20484;-72